sensor_id;sensor_type;location;lat;lon;timestamp;temperature;humidity
72338;DHT22;60294;64.134;-21.862;2022-08-20T00:00:34;11.00;79.60
72338;DHT22;60294;64.134;-21.862;2022-08-20T00:03:04;11.00;79.30
72338;DHT22;60294;64.134;-21.862;2022-08-20T00:05:34;11.00;79.30
72338;DHT22;60294;64.134;-21.862;2022-08-20T00:08:00;10.90;80.00
72338;DHT22;60294;64.134;-21.862;2022-08-20T00:10:29;10.80;80.30
72338;DHT22;60294;64.134;-21.862;2022-08-20T00:12:56;10.90;79.40
72338;DHT22;60294;64.134;-21.862;2022-08-20T00:15:26;10.90;79.20
72338;DHT22;60294;64.134;-21.862;2022-08-20T00:17:54;11.00;78.70
72338;DHT22;60294;64.134;-21.862;2022-08-20T00:20:23;11.00;79.00
72338;DHT22;60294;64.134;-21.862;2022-08-20T00:22:49;11.10;78.90
72338;DHT22;60294;64.134;-21.862;2022-08-20T00:25:17;11.10;79.10
72338;DHT22;60294;64.134;-21.862;2022-08-20T00:27:43;11.10;78.90
72338;DHT22;60294;64.134;-21.862;2022-08-20T00:30:11;11.10;78.40
72338;DHT22;60294;64.134;-21.862;2022-08-20T00:32:49;11.10;78.20
72338;DHT22;60294;64.134;-21.862;2022-08-20T00:35:18;11.10;79.00
72338;DHT22;60294;64.134;-21.862;2022-08-20T00:37:44;11.10;79.10
72338;DHT22;60294;64.134;-21.862;2022-08-20T00:40:13;11.10;78.60
72338;DHT22;60294;64.134;-21.862;2022-08-20T00:42:41;11.10;78.90
72338;DHT22;60294;64.134;-21.862;2022-08-20T00:45:08;11.10;79.20
72338;DHT22;60294;64.134;-21.862;2022-08-20T00:47:34;11.10;79.20
72338;DHT22;60294;64.134;-21.862;2022-08-20T00:50:03;11.00;79.20
72338;DHT22;60294;64.134;-21.862;2022-08-20T00:52:30;11.00;79.70
72338;DHT22;60294;64.134;-21.862;2022-08-20T00:54:58;11.00;79.50
72338;DHT22;60294;64.134;-21.862;2022-08-20T00:57:32;10.90;79.10
72338;DHT22;60294;64.134;-21.862;2022-08-20T01:00:00;10.90;79.20
72338;DHT22;60294;64.134;-21.862;2022-08-20T01:02:28;10.80;79.50
72338;DHT22;60294;64.134;-21.862;2022-08-20T01:04:55;10.80;79.60
72338;DHT22;60294;64.134;-21.862;2022-08-20T01:07:26;10.80;79.20
72338;DHT22;60294;64.134;-21.862;2022-08-20T01:10:13;10.60;79.20
72338;DHT22;60294;64.134;-21.862;2022-08-20T01:12:43;10.60;79.90
72338;DHT22;60294;64.134;-21.862;2022-08-20T01:15:13;10.60;79.90
72338;DHT22;60294;64.134;-21.862;2022-08-20T01:17:43;10.70;79.40
72338;DHT22;60294;64.134;-21.862;2022-08-20T01:23:02;10.60;78.90
72338;DHT22;60294;64.134;-21.862;2022-08-20T01:25:53;10.60;79.20
72338;DHT22;60294;64.134;-21.862;2022-08-20T01:28:26;10.60;79.70
72338;DHT22;60294;64.134;-21.862;2022-08-20T01:30:53;10.60;80.10
72338;DHT22;60294;64.134;-21.862;2022-08-20T01:33:20;10.60;79.60
72338;DHT22;60294;64.134;-21.862;2022-08-20T01:35:47;10.60;79.10
72338;DHT22;60294;64.134;-21.862;2022-08-20T01:38:13;10.60;78.80
72338;DHT22;60294;64.134;-21.862;2022-08-20T01:43:26;10.60;78.60
72338;DHT22;60294;64.134;-21.862;2022-08-20T01:45:52;10.60;79.30
72338;DHT22;60294;64.134;-21.862;2022-08-20T01:48:19;10.60;79.70
72338;DHT22;60294;64.134;-21.862;2022-08-20T01:51:03;10.60;80.30
72338;DHT22;60294;64.134;-21.862;2022-08-20T01:53:33;10.60;80.30
72338;DHT22;60294;64.134;-21.862;2022-08-20T01:56:04;10.60;79.70
72338;DHT22;60294;64.134;-21.862;2022-08-20T01:58:32;10.60;80.00
72338;DHT22;60294;64.134;-21.862;2022-08-20T02:00:59;10.60;79.40
72338;DHT22;60294;64.134;-21.862;2022-08-20T02:03:25;10.70;78.80
72338;DHT22;60294;64.134;-21.862;2022-08-20T02:05:51;10.70;78.30
72338;DHT22;60294;64.134;-21.862;2022-08-20T02:08:19;10.70;78.60
72338;DHT22;60294;64.134;-21.862;2022-08-20T02:10:47;10.60;78.80
72338;DHT22;60294;64.134;-21.862;2022-08-20T02:13:13;10.60;77.10
72338;DHT22;60294;64.134;-21.862;2022-08-20T02:15:40;10.50;77.70
72338;DHT22;60294;64.134;-21.862;2022-08-20T02:18:07;10.50;77.40
72338;DHT22;60294;64.134;-21.862;2022-08-20T02:20:35;10.50;77.70
72338;DHT22;60294;64.134;-21.862;2022-08-20T02:23:02;10.60;78.10
72338;DHT22;60294;64.134;-21.862;2022-08-20T02:25:32;10.60;76.60
72338;DHT22;60294;64.134;-21.862;2022-08-20T02:28:01;10.50;76.60
72338;DHT22;60294;64.134;-21.862;2022-08-20T02:30:32;10.60;76.00
72338;DHT22;60294;64.134;-21.862;2022-08-20T02:33:00;10.60;74.40
72338;DHT22;60294;64.134;-21.862;2022-08-20T02:35:27;10.60;75.10
72338;DHT22;60294;64.134;-21.862;2022-08-20T02:37:53;10.50;75.10
72338;DHT22;60294;64.134;-21.862;2022-08-20T02:40:22;10.50;75.70
72338;DHT22;60294;64.134;-21.862;2022-08-20T02:42:51;10.50;75.40
72338;DHT22;60294;64.134;-21.862;2022-08-20T02:45:17;10.50;76.10
72338;DHT22;60294;64.134;-21.862;2022-08-20T02:47:44;10.50;75.70
72338;DHT22;60294;64.134;-21.862;2022-08-20T02:50:13;10.50;75.30
72338;DHT22;60294;64.134;-21.862;2022-08-20T02:52:40;10.40;75.50
72338;DHT22;60294;64.134;-21.862;2022-08-20T02:55:06;10.50;76.10
72338;DHT22;60294;64.134;-21.862;2022-08-20T02:57:32;10.50;75.90
72338;DHT22;60294;64.134;-21.862;2022-08-20T02:59:58;10.60;75.90
72338;DHT22;60294;64.134;-21.862;2022-08-20T03:02:24;10.50;76.70
72338;DHT22;60294;64.134;-21.862;2022-08-20T03:04:50;10.40;75.80
72338;DHT22;60294;64.134;-21.862;2022-08-20T03:07:16;10.30;76.30
72338;DHT22;60294;64.134;-21.862;2022-08-20T03:09:42;10.20;76.40
72338;DHT22;60294;64.134;-21.862;2022-08-20T03:12:08;10.10;76.50
72338;DHT22;60294;64.134;-21.862;2022-08-20T03:14:34;10.10;76.90
72338;DHT22;60294;64.134;-21.862;2022-08-20T03:17:01;10.10;77.20
72338;DHT22;60294;64.134;-21.862;2022-08-20T03:19:27;10.00;77.70
72338;DHT22;60294;64.134;-21.862;2022-08-20T03:21:52;10.00;77.70
72338;DHT22;60294;64.134;-21.862;2022-08-20T03:24:18;10.00;77.70
72338;DHT22;60294;64.134;-21.862;2022-08-20T03:26:44;10.00;77.90
72338;DHT22;60294;64.134;-21.862;2022-08-20T03:29:10;10.00;77.90
72338;DHT22;60294;64.134;-21.862;2022-08-20T03:31:37;9.90;76.60
72338;DHT22;60294;64.134;-21.862;2022-08-20T03:34:03;9.90;76.50
72338;DHT22;60294;64.134;-21.862;2022-08-20T03:36:29;10.00;76.70
72338;DHT22;60294;64.134;-21.862;2022-08-20T03:39:03;9.90;76.30
72338;DHT22;60294;64.134;-21.862;2022-08-20T03:41:29;9.90;76.70
72338;DHT22;60294;64.134;-21.862;2022-08-20T03:43:57;9.90;76.10
72338;DHT22;60294;64.134;-21.862;2022-08-20T03:46:23;9.80;75.90
72338;DHT22;60294;64.134;-21.862;2022-08-20T03:48:53;9.80;76.30
72338;DHT22;60294;64.134;-21.862;2022-08-20T03:51:19;9.80;76.50
72338;DHT22;60294;64.134;-21.862;2022-08-20T03:53:45;9.80;76.40
72338;DHT22;60294;64.134;-21.862;2022-08-20T03:56:11;9.80;76.50
72338;DHT22;60294;64.134;-21.862;2022-08-20T03:58:37;9.80;76.90
72338;DHT22;60294;64.134;-21.862;2022-08-20T04:01:05;9.80;76.40
72338;DHT22;60294;64.134;-21.862;2022-08-20T04:03:31;9.70;77.10
72338;DHT22;60294;64.134;-21.862;2022-08-20T04:05:57;9.70;77.40
72338;DHT22;60294;64.134;-21.862;2022-08-20T04:08:26;9.60;76.70
72338;DHT22;60294;64.134;-21.862;2022-08-20T04:10:53;9.50;77.60
72338;DHT22;60294;64.134;-21.862;2022-08-20T04:13:20;9.60;77.70
72338;DHT22;60294;64.134;-21.862;2022-08-20T04:15:47;9.70;77.10
72338;DHT22;60294;64.134;-21.862;2022-08-20T04:18:14;9.70;77.00
72338;DHT22;60294;64.134;-21.862;2022-08-20T04:20:41;9.80;76.60
72338;DHT22;60294;64.134;-21.862;2022-08-20T04:23:08;9.90;76.60
72338;DHT22;60294;64.134;-21.862;2022-08-20T04:25:37;9.90;77.10
72338;DHT22;60294;64.134;-21.862;2022-08-20T04:28:07;9.80;77.10
72338;DHT22;60294;64.134;-21.862;2022-08-20T04:30:33;9.70;77.30
72338;DHT22;60294;64.134;-21.862;2022-08-20T04:32:59;9.60;77.60
72338;DHT22;60294;64.134;-21.862;2022-08-20T04:35:26;9.60;77.50
72338;DHT22;60294;64.134;-21.862;2022-08-20T04:38:06;9.70;77.70
72338;DHT22;60294;64.134;-21.862;2022-08-20T04:40:33;9.50;78.00
72338;DHT22;60294;64.134;-21.862;2022-08-20T04:43:22;9.50;78.40
72338;DHT22;60294;64.134;-21.862;2022-08-20T04:45:49;9.40;78.90
72338;DHT22;60294;64.134;-21.862;2022-08-20T04:48:17;9.30;78.90
72338;DHT22;60294;64.134;-21.862;2022-08-20T04:50:44;9.30;78.80
72338;DHT22;60294;64.134;-21.862;2022-08-20T04:53:13;9.30;79.10
72338;DHT22;60294;64.134;-21.862;2022-08-20T04:55:41;9.30;79.00
72338;DHT22;60294;64.134;-21.862;2022-08-20T04:58:11;9.20;79.20
72338;DHT22;60294;64.134;-21.862;2022-08-20T05:00:38;9.10;78.80
72338;DHT22;60294;64.134;-21.862;2022-08-20T05:03:04;9.20;78.60
72338;DHT22;60294;64.134;-21.862;2022-08-20T05:05:33;9.20;77.70
72338;DHT22;60294;64.134;-21.862;2022-08-20T05:08:02;9.20;77.40
72338;DHT22;60294;64.134;-21.862;2022-08-20T05:10:28;9.20;77.50
72338;DHT22;60294;64.134;-21.862;2022-08-20T05:12:54;9.30;76.60
72338;DHT22;60294;64.134;-21.862;2022-08-20T05:15:20;9.40;77.00
72338;DHT22;60294;64.134;-21.862;2022-08-20T05:17:53;9.40;76.50
72338;DHT22;60294;64.134;-21.862;2022-08-20T05:20:20;9.30;75.20
72338;DHT22;60294;64.134;-21.862;2022-08-20T05:22:45;9.40;75.60
72338;DHT22;60294;64.134;-21.862;2022-08-20T05:25:11;9.40;75.80
72338;DHT22;60294;64.134;-21.862;2022-08-20T05:27:37;9.40;74.70
72338;DHT22;60294;64.134;-21.862;2022-08-20T05:30:08;9.40;74.50
72338;DHT22;60294;64.134;-21.862;2022-08-20T05:32:35;9.30;74.90
72338;DHT22;60294;64.134;-21.862;2022-08-20T05:35:02;9.30;74.80
72338;DHT22;60294;64.134;-21.862;2022-08-20T05:37:29;9.30;75.20
72338;DHT22;60294;64.134;-21.862;2022-08-20T05:39:56;9.20;75.20
72338;DHT22;60294;64.134;-21.862;2022-08-20T05:42:22;9.10;75.10
72338;DHT22;60294;64.134;-21.862;2022-08-20T05:44:48;9.20;75.50
72338;DHT22;60294;64.134;-21.862;2022-08-20T05:47:14;9.20;75.60
72338;DHT22;60294;64.134;-21.862;2022-08-20T05:49:40;9.20;75.60
72338;DHT22;60294;64.134;-21.862;2022-08-20T05:52:06;9.20;75.90
72338;DHT22;60294;64.134;-21.862;2022-08-20T05:54:32;9.20;74.90
72338;DHT22;60294;64.134;-21.862;2022-08-20T05:56:58;9.20;75.40
72338;DHT22;60294;64.134;-21.862;2022-08-20T05:59:24;9.10;75.60
72338;DHT22;60294;64.134;-21.862;2022-08-20T06:01:50;9.10;76.30
72338;DHT22;60294;64.134;-21.862;2022-08-20T06:04:17;9.20;75.20
72338;DHT22;60294;64.134;-21.862;2022-08-20T06:06:50;9.20;75.40
72338;DHT22;60294;64.134;-21.862;2022-08-20T06:09:19;9.20;76.00
72338;DHT22;60294;64.134;-21.862;2022-08-20T06:11:45;9.20;75.00
72338;DHT22;60294;64.134;-21.862;2022-08-20T06:14:11;9.20;75.10
72338;DHT22;60294;64.134;-21.862;2022-08-20T06:16:37;9.20;75.60
72338;DHT22;60294;64.134;-21.862;2022-08-20T06:19:03;9.10;76.60
72338;DHT22;60294;64.134;-21.862;2022-08-20T06:21:29;9.10;77.00
72338;DHT22;60294;64.134;-21.862;2022-08-20T06:23:55;9.10;76.90
72338;DHT22;60294;64.134;-21.862;2022-08-20T06:26:21;9.00;76.90
72338;DHT22;60294;64.134;-21.862;2022-08-20T06:28:48;9.00;76.30
72338;DHT22;60294;64.134;-21.862;2022-08-20T06:31:13;8.90;76.60
72338;DHT22;60294;64.134;-21.862;2022-08-20T06:33:39;8.90;76.20
72338;DHT22;60294;64.134;-21.862;2022-08-20T06:36:05;8.80;76.60
72338;DHT22;60294;64.134;-21.862;2022-08-20T06:38:31;8.80;76.90
72338;DHT22;60294;64.134;-21.862;2022-08-20T06:40:57;9.00;77.20
72338;DHT22;60294;64.134;-21.862;2022-08-20T06:43:24;8.90;76.30
72338;DHT22;60294;64.134;-21.862;2022-08-20T06:45:50;9.00;75.60
72338;DHT22;60294;64.134;-21.862;2022-08-20T06:48:16;8.90;75.90
72338;DHT22;60294;64.134;-21.862;2022-08-20T06:50:45;8.80;76.20
72338;DHT22;60294;64.134;-21.862;2022-08-20T06:53:13;8.80;76.70
72338;DHT22;60294;64.134;-21.862;2022-08-20T06:55:49;8.80;76.60
72338;DHT22;60294;64.134;-21.862;2022-08-20T06:58:16;8.80;76.90
72338;DHT22;60294;64.134;-21.862;2022-08-20T07:00:43;8.90;76.80
72338;DHT22;60294;64.134;-21.862;2022-08-20T07:03:09;8.90;77.40
72338;DHT22;60294;64.134;-21.862;2022-08-20T07:05:38;8.90;77.00
72338;DHT22;60294;64.134;-21.862;2022-08-20T07:08:09;8.90;76.90
72338;DHT22;60294;64.134;-21.862;2022-08-20T07:10:36;8.90;75.60
72338;DHT22;60294;64.134;-21.862;2022-08-20T07:13:02;8.70;76.70
72338;DHT22;60294;64.134;-21.862;2022-08-20T07:15:28;8.60;76.50
72338;DHT22;60294;64.134;-21.862;2022-08-20T07:17:59;8.60;76.40
72338;DHT22;60294;64.134;-21.862;2022-08-20T07:20:26;8.40;76.10
72338;DHT22;60294;64.134;-21.862;2022-08-20T07:22:52;8.50;76.40
72338;DHT22;60294;64.134;-21.862;2022-08-20T07:25:20;8.40;75.60
72338;DHT22;60294;64.134;-21.862;2022-08-20T07:27:47;8.50;76.50
72338;DHT22;60294;64.134;-21.862;2022-08-20T07:30:24;8.40;76.40
72338;DHT22;60294;64.134;-21.862;2022-08-20T07:33:08;8.40;76.70
72338;DHT22;60294;64.134;-21.862;2022-08-20T07:35:34;8.50;76.60
72338;DHT22;60294;64.134;-21.862;2022-08-20T07:38:00;8.40;76.40
72338;DHT22;60294;64.134;-21.862;2022-08-20T07:40:30;8.50;76.50
72338;DHT22;60294;64.134;-21.862;2022-08-20T07:42:57;8.50;77.10
72338;DHT22;60294;64.134;-21.862;2022-08-20T07:45:25;8.60;77.20
72338;DHT22;60294;64.134;-21.862;2022-08-20T07:47:52;8.60;76.60
72338;DHT22;60294;64.134;-21.862;2022-08-20T07:50:20;8.60;76.70
72338;DHT22;60294;64.134;-21.862;2022-08-20T07:52:46;8.80;75.80
72338;DHT22;60294;64.134;-21.862;2022-08-20T07:55:14;8.90;74.60
72338;DHT22;60294;64.134;-21.862;2022-08-20T07:57:42;8.90;73.80
72338;DHT22;60294;64.134;-21.862;2022-08-20T08:00:10;9.10;74.20
72338;DHT22;60294;64.134;-21.862;2022-08-20T08:02:36;9.10;74.90
72338;DHT22;60294;64.134;-21.862;2022-08-20T08:05:03;9.10;73.80
72338;DHT22;60294;64.134;-21.862;2022-08-20T08:07:30;9.10;72.80
72338;DHT22;60294;64.134;-21.862;2022-08-20T08:09:58;9.20;72.80
72338;DHT22;60294;64.134;-21.862;2022-08-20T08:12:27;9.10;72.80
72338;DHT22;60294;64.134;-21.862;2022-08-20T08:14:57;9.20;72.50
72338;DHT22;60294;64.134;-21.862;2022-08-20T08:17:24;9.30;71.90
72338;DHT22;60294;64.134;-21.862;2022-08-20T08:19:50;9.40;72.40
72338;DHT22;60294;64.134;-21.862;2022-08-20T08:22:17;9.40;72.20
72338;DHT22;60294;64.134;-21.862;2022-08-20T08:24:44;9.50;72.60
72338;DHT22;60294;64.134;-21.862;2022-08-20T08:27:13;9.40;71.90
72338;DHT22;60294;64.134;-21.862;2022-08-20T08:29:39;9.40;72.10
72338;DHT22;60294;64.134;-21.862;2022-08-20T08:32:06;9.50;71.70
72338;DHT22;60294;64.134;-21.862;2022-08-20T08:34:34;9.50;71.50
72338;DHT22;60294;64.134;-21.862;2022-08-20T08:37:00;9.50;71.70
72338;DHT22;60294;64.134;-21.862;2022-08-20T08:39:31;9.60;71.90
72338;DHT22;60294;64.134;-21.862;2022-08-20T08:41:58;9.60;71.00
72338;DHT22;60294;64.134;-21.862;2022-08-20T08:44:28;9.60;71.50
72338;DHT22;60294;64.134;-21.862;2022-08-20T08:47:01;9.60;71.10
72338;DHT22;60294;64.134;-21.862;2022-08-20T08:49:34;9.70;71.10
72338;DHT22;60294;64.134;-21.862;2022-08-20T08:52:30;9.70;70.40
72338;DHT22;60294;64.134;-21.862;2022-08-20T08:55:03;9.60;71.50
72338;DHT22;60294;64.134;-21.862;2022-08-20T08:57:30;9.60;71.50
72338;DHT22;60294;64.134;-21.862;2022-08-20T09:00:04;9.70;71.70
72338;DHT22;60294;64.134;-21.862;2022-08-20T09:02:31;9.80;71.50
72338;DHT22;60294;64.134;-21.862;2022-08-20T09:04:59;9.60;71.80
72338;DHT22;60294;64.134;-21.862;2022-08-20T09:07:29;9.40;72.70
72338;DHT22;60294;64.134;-21.862;2022-08-20T09:09:56;9.30;72.70
72338;DHT22;60294;64.134;-21.862;2022-08-20T09:12:23;9.30;73.60
72338;DHT22;60294;64.134;-21.862;2022-08-20T09:14:50;9.40;72.80
72338;DHT22;60294;64.134;-21.862;2022-08-20T09:17:18;9.40;72.60
72338;DHT22;60294;64.134;-21.862;2022-08-20T09:19:45;9.50;73.10
72338;DHT22;60294;64.134;-21.862;2022-08-20T09:22:19;9.40;72.30
72338;DHT22;60294;64.134;-21.862;2022-08-20T09:24:45;9.60;72.20
72338;DHT22;60294;64.134;-21.862;2022-08-20T09:27:11;9.80;70.80
72338;DHT22;60294;64.134;-21.862;2022-08-20T09:29:38;9.90;71.10
72338;DHT22;60294;64.134;-21.862;2022-08-20T09:34:29;10.40;69.20
72338;DHT22;60294;64.134;-21.862;2022-08-20T09:36:55;10.70;68.70
72338;DHT22;60294;64.134;-21.862;2022-08-20T09:39:21;10.90;67.90
72338;DHT22;60294;64.134;-21.862;2022-08-20T09:41:47;10.80;66.50
72338;DHT22;60294;64.134;-21.862;2022-08-20T09:44:12;10.90;68.20
72338;DHT22;60294;64.134;-21.862;2022-08-20T09:46:38;10.70;67.90
72338;DHT22;60294;64.134;-21.862;2022-08-20T09:49:04;10.60;67.20
72338;DHT22;60294;64.134;-21.862;2022-08-20T09:51:30;10.60;67.80
72338;DHT22;60294;64.134;-21.862;2022-08-20T09:53:57;10.50;67.80
72338;DHT22;60294;64.134;-21.862;2022-08-20T09:56:24;10.40;68.80
72338;DHT22;60294;64.134;-21.862;2022-08-20T09:58:52;10.30;69.10
72338;DHT22;60294;64.134;-21.862;2022-08-20T10:01:20;10.30;68.80
72338;DHT22;60294;64.134;-21.862;2022-08-20T10:03:47;10.20;68.20
72338;DHT22;60294;64.134;-21.862;2022-08-20T10:06:14;10.30;68.50
72338;DHT22;60294;64.134;-21.862;2022-08-20T10:08:41;10.30;68.40
72338;DHT22;60294;64.134;-21.862;2022-08-20T10:11:07;10.30;69.10
72338;DHT22;60294;64.134;-21.862;2022-08-20T10:13:33;10.40;69.30
72338;DHT22;60294;64.134;-21.862;2022-08-20T10:15:59;10.50;68.50
72338;DHT22;60294;64.134;-21.862;2022-08-20T10:18:25;10.40;69.00
72338;DHT22;60294;64.134;-21.862;2022-08-20T10:20:51;10.60;68.70
72338;DHT22;60294;64.134;-21.862;2022-08-20T10:23:16;10.50;67.10
72338;DHT22;60294;64.134;-21.862;2022-08-20T10:25:42;10.40;68.20
72338;DHT22;60294;64.134;-21.862;2022-08-20T10:28:08;10.40;68.40
72338;DHT22;60294;64.134;-21.862;2022-08-20T10:30:34;10.40;68.00
72338;DHT22;60294;64.134;-21.862;2022-08-20T10:33:00;10.40;67.30
72338;DHT22;60294;64.134;-21.862;2022-08-20T10:35:26;10.60;66.20
72338;DHT22;60294;64.134;-21.862;2022-08-20T10:37:52;10.60;66.50
72338;DHT22;60294;64.134;-21.862;2022-08-20T10:40:18;10.50;66.60
72338;DHT22;60294;64.134;-21.862;2022-08-20T10:42:44;10.50;67.20
72338;DHT22;60294;64.134;-21.862;2022-08-20T10:45:12;10.20;68.10
72338;DHT22;60294;64.134;-21.862;2022-08-20T10:47:38;10.30;67.60
72338;DHT22;60294;64.134;-21.862;2022-08-20T10:50:07;10.30;67.80
72338;DHT22;60294;64.134;-21.862;2022-08-20T10:52:33;10.40;67.30
72338;DHT22;60294;64.134;-21.862;2022-08-20T10:54:59;10.20;67.20
72338;DHT22;60294;64.134;-21.862;2022-08-20T10:57:29;10.30;68.10
72338;DHT22;60294;64.134;-21.862;2022-08-20T10:59:56;10.10;67.70
72338;DHT22;60294;64.134;-21.862;2022-08-20T11:02:23;10.20;68.30
72338;DHT22;60294;64.134;-21.862;2022-08-20T11:04:50;10.20;67.20
72338;DHT22;60294;64.134;-21.862;2022-08-20T11:07:31;10.10;67.50
72338;DHT22;60294;64.134;-21.862;2022-08-20T11:09:58;10.70;67.00
72338;DHT22;60294;64.134;-21.862;2022-08-20T11:12:24;10.90;65.20
72338;DHT22;60294;64.134;-21.862;2022-08-20T11:14:51;11.20;65.00
72338;DHT22;60294;64.134;-21.862;2022-08-20T11:17:23;11.30;64.70
72338;DHT22;60294;64.134;-21.862;2022-08-20T11:19:49;11.50;63.80
72338;DHT22;60294;64.134;-21.862;2022-08-20T11:22:16;11.90;63.80
72338;DHT22;60294;64.134;-21.862;2022-08-20T11:24:42;12.00;62.30
72338;DHT22;60294;64.134;-21.862;2022-08-20T11:27:08;11.80;62.40
72338;DHT22;60294;64.134;-21.862;2022-08-20T11:29:36;11.60;62.80
72338;DHT22;60294;64.134;-21.862;2022-08-20T11:32:03;11.90;63.00
72338;DHT22;60294;64.134;-21.862;2022-08-20T11:34:29;12.00;62.60
72338;DHT22;60294;64.134;-21.862;2022-08-20T11:36:55;12.40;61.80
72338;DHT22;60294;64.134;-21.862;2022-08-20T11:39:23;12.70;60.40
72338;DHT22;60294;64.134;-21.862;2022-08-20T11:41:49;12.70;60.30
72338;DHT22;60294;64.134;-21.862;2022-08-20T11:44:15;12.60;60.40
72338;DHT22;60294;64.134;-21.862;2022-08-20T11:46:41;12.60;60.40
72338;DHT22;60294;64.134;-21.862;2022-08-20T11:49:07;12.40;61.20
72338;DHT22;60294;64.134;-21.862;2022-08-20T11:51:33;12.20;60.80
72338;DHT22;60294;64.134;-21.862;2022-08-20T11:53:59;12.00;61.00
72338;DHT22;60294;64.134;-21.862;2022-08-20T11:56:25;11.90;61.70
72338;DHT22;60294;64.134;-21.862;2022-08-20T11:58:51;12.00;61.40
72338;DHT22;60294;64.134;-21.862;2022-08-20T12:01:17;12.00;60.90
72338;DHT22;60294;64.134;-21.862;2022-08-20T12:03:43;12.20;61.00
72338;DHT22;60294;64.134;-21.862;2022-08-20T12:06:08;12.40;60.50
72338;DHT22;60294;64.134;-21.862;2022-08-20T12:08:34;12.40;59.90
72338;DHT22;60294;64.134;-21.862;2022-08-20T12:11:01;12.60;59.40
72338;DHT22;60294;64.134;-21.862;2022-08-20T12:13:30;12.40;59.30
72338;DHT22;60294;64.134;-21.862;2022-08-20T12:15:57;12.20;59.90
72338;DHT22;60294;64.134;-21.862;2022-08-20T12:18:23;12.30;59.70
72338;DHT22;60294;64.134;-21.862;2022-08-20T12:20:49;12.20;59.90
72338;DHT22;60294;64.134;-21.862;2022-08-20T12:23:15;12.10;60.10
72338;DHT22;60294;64.134;-21.862;2022-08-20T12:25:40;12.30;59.50
72338;DHT22;60294;64.134;-21.862;2022-08-20T12:28:06;12.20;60.10
72338;DHT22;60294;64.134;-21.862;2022-08-20T12:30:33;11.90;60.60
72338;DHT22;60294;64.134;-21.862;2022-08-20T12:32:59;11.90;60.70
72338;DHT22;60294;64.134;-21.862;2022-08-20T12:35:25;12.10;60.50
72338;DHT22;60294;64.134;-21.862;2022-08-20T12:37:51;12.60;60.40
72338;DHT22;60294;64.134;-21.862;2022-08-20T12:40:28;12.80;59.50
72338;DHT22;60294;64.134;-21.862;2022-08-20T12:42:54;12.80;59.40
72338;DHT22;60294;64.134;-21.862;2022-08-20T12:45:20;12.70;60.30
72338;DHT22;60294;64.134;-21.862;2022-08-20T12:47:46;12.50;60.30
72338;DHT22;60294;64.134;-21.862;2022-08-20T12:50:18;12.40;61.70
72338;DHT22;60294;64.134;-21.862;2022-08-20T12:52:45;12.60;60.20
72338;DHT22;60294;64.134;-21.862;2022-08-20T12:55:14;12.80;57.90
72338;DHT22;60294;64.134;-21.862;2022-08-20T12:57:46;13.10;57.80
72338;DHT22;60294;64.134;-21.862;2022-08-20T13:00:15;13.10;57.00
72338;DHT22;60294;64.134;-21.862;2022-08-20T13:02:42;13.60;55.60
72338;DHT22;60294;64.134;-21.862;2022-08-20T13:05:08;13.90;55.20
72338;DHT22;60294;64.134;-21.862;2022-08-20T13:07:35;14.40;54.60
72338;DHT22;60294;64.134;-21.862;2022-08-20T13:10:03;14.50;53.00
72338;DHT22;60294;64.134;-21.862;2022-08-20T13:12:29;14.80;52.00
72338;DHT22;60294;64.134;-21.862;2022-08-20T13:14:55;15.10;52.80
72338;DHT22;60294;64.134;-21.862;2022-08-20T13:17:21;15.40;52.40
72338;DHT22;60294;64.134;-21.862;2022-08-20T13:19:47;15.60;51.40
72338;DHT22;60294;64.134;-21.862;2022-08-20T13:22:13;15.60;50.60
72338;DHT22;60294;64.134;-21.862;2022-08-20T13:24:39;15.40;51.40
72338;DHT22;60294;64.134;-21.862;2022-08-20T13:27:09;15.20;51.20
72338;DHT22;60294;64.134;-21.862;2022-08-20T13:29:36;15.30;51.40
72338;DHT22;60294;64.134;-21.862;2022-08-20T13:32:02;15.20;51.60
72338;DHT22;60294;64.134;-21.862;2022-08-20T13:34:28;15.20;52.70
72338;DHT22;60294;64.134;-21.862;2022-08-20T13:36:54;15.10;52.70
72338;DHT22;60294;64.134;-21.862;2022-08-20T13:39:21;15.20;52.90
72338;DHT22;60294;64.134;-21.862;2022-08-20T13:41:48;15.50;51.40
72338;DHT22;60294;64.134;-21.862;2022-08-20T13:44:14;15.60;50.90
72338;DHT22;60294;64.134;-21.862;2022-08-20T13:46:40;15.60;51.50
72338;DHT22;60294;64.134;-21.862;2022-08-20T13:49:06;15.40;51.50
72338;DHT22;60294;64.134;-21.862;2022-08-20T13:51:32;14.80;53.20
72338;DHT22;60294;64.134;-21.862;2022-08-20T13:53:58;14.40;54.80
72338;DHT22;60294;64.134;-21.862;2022-08-20T13:56:23;14.20;54.70
72338;DHT22;60294;64.134;-21.862;2022-08-20T13:58:49;14.00;56.50
72338;DHT22;60294;64.134;-21.862;2022-08-20T14:01:15;13.90;56.10
72338;DHT22;60294;64.134;-21.862;2022-08-20T14:03:41;14.00;57.40
72338;DHT22;60294;64.134;-21.862;2022-08-20T14:06:07;13.90;57.60
72338;DHT22;60294;64.134;-21.862;2022-08-20T14:08:35;13.90;56.50
72338;DHT22;60294;64.134;-21.862;2022-08-20T14:11:01;13.80;56.10
72338;DHT22;60294;64.134;-21.862;2022-08-20T14:13:27;13.60;56.90
72338;DHT22;60294;64.134;-21.862;2022-08-20T14:15:53;13.70;57.60
72338;DHT22;60294;64.134;-21.862;2022-08-20T14:18:21;13.70;58.20
72338;DHT22;60294;64.134;-21.862;2022-08-20T14:20:47;13.60;58.00
72338;DHT22;60294;64.134;-21.862;2022-08-20T14:23:13;14.10;55.40
72338;DHT22;60294;64.134;-21.862;2022-08-20T14:25:40;14.30;55.20
72338;DHT22;60294;64.134;-21.862;2022-08-20T14:28:21;15.30;53.10
72338;DHT22;60294;64.134;-21.862;2022-08-20T14:30:48;14.80;54.30
72338;DHT22;60294;64.134;-21.862;2022-08-20T14:33:15;15.70;51.60
72338;DHT22;60294;64.134;-21.862;2022-08-20T14:35:41;15.80;51.60
72338;DHT22;60294;64.134;-21.862;2022-08-20T14:38:07;16.50;49.30
72338;DHT22;60294;64.134;-21.862;2022-08-20T14:40:34;16.80;48.50
72338;DHT22;60294;64.134;-21.862;2022-08-20T14:43:00;15.80;50.50
72338;DHT22;60294;64.134;-21.862;2022-08-20T14:45:26;15.30;50.90
72338;DHT22;60294;64.134;-21.862;2022-08-20T14:47:54;15.10;52.20
72338;DHT22;60294;64.134;-21.862;2022-08-20T14:50:25;14.90;53.10
72338;DHT22;60294;64.134;-21.862;2022-08-20T14:52:52;15.10;52.20
72338;DHT22;60294;64.134;-21.862;2022-08-20T14:55:21;15.30;52.40
72338;DHT22;60294;64.134;-21.862;2022-08-20T14:57:47;16.70;48.20
72338;DHT22;60294;64.134;-21.862;2022-08-20T15:00:20;16.00;49.80
72338;DHT22;60294;64.134;-21.862;2022-08-20T15:02:46;15.70;50.70
72338;DHT22;60294;64.134;-21.862;2022-08-20T15:05:13;16.90;47.40
72338;DHT22;60294;64.134;-21.862;2022-08-20T15:07:42;16.40;47.80
72338;DHT22;60294;64.134;-21.862;2022-08-20T15:10:12;16.60;47.80
72338;DHT22;60294;64.134;-21.862;2022-08-20T15:12:39;16.60;47.80
72338;DHT22;60294;64.134;-21.862;2022-08-20T15:15:07;17.10;45.60
72338;DHT22;60294;64.134;-21.862;2022-08-20T15:17:33;17.60;45.40